Time;durP1;ratioP1;P1;durP2;ratioP2;P2;SDS_P1;SDS_P2;PMS_P1;PMS_P2;Temp;Humidity;BMP_temperature;BMP_pressure;BME280_temperature;BME280_humidity;BME280_pressure;Samples;Min_cycle;Max_cycle;Signal;HPM_P1;HPM_P2
2022/02/19 00:00:29;;;;;;;5.15;1.27;;;;;;;10.95;41.46;100479.31;4973603;28;20023;-71
2022/02/19 00:02:55;;;;;;;3.80;1.48;;;;;;;11.05;41.34;100484.47;4973430;28;20042;-71
2022/02/19 00:05:24;;;;;;;5.97;1.90;;;;;;;11.11;41.06;100494.13;4973437;28;20030;-72
2022/02/19 00:07:50;;;;;;;3.80;1.55;;;;;;;11.11;41.11;100491.38;4973379;28;20023;-71
2022/02/19 00:10:16;;;;;;;6.10;1.50;;;;;;;11.11;40.97;100496.06;4973456;28;20038;-72
2022/02/19 00:12:42;;;;;;;5.28;1.70;;;;;;;10.76;41.55;100501.50;4973477;28;20477;-72
2022/02/19 00:15:08;;;;;;;4.53;1.52;;;;;;;10.79;41.69;100508.25;4973427;28;20054;-71
2022/02/19 00:17:33;;;;;;;4.70;1.38;;;;;;;10.89;41.67;100507.94;4973378;28;20023;-71
2022/02/19 00:20:00;;;;;;;5.43;1.42;;;;;;;10.84;41.46;100516.28;4973349;28;20382;-72
2022/02/19 00:22:26;;;;;;;3.00;1.17;;;;;;;10.93;41.24;100503.44;4973295;28;20123;-70
2022/02/19 00:24:52;;;;;;;2.97;1.23;;;;;;;10.99;41.06;100524.03;4973280;28;20478;-71
2022/02/19 00:27:18;;;;;;;4.38;1.58;;;;;;;10.78;41.48;100529.31;4973242;28;20029;-71
2022/02/19 00:29:44;;;;;;;6.63;1.90;;;;;;;11.05;40.87;100528.22;4973081;28;20498;-71
2022/02/19 00:32:10;;;;;;;3.47;1.48;;;;;;;11.21;40.62;100534.00;4973258;28;20031;-70
2022/02/19 00:34:36;;;;;;;2.83;1.10;;;;;;;10.78;41.49;100533.97;4972936;28;20089;-70
2022/02/19 00:37:02;;;;;;;4.03;1.15;;;;;;;10.76;41.64;100519.81;4973193;28;20433;-70
2022/02/19 00:39:29;;;;;;;3.40;1.20;;;;;;;10.91;41.26;100526.75;4955783;28;20434;-71
2022/02/19 00:41:55;;;;;;;5.28;1.40;;;;;;;11.04;40.94;100531.28;4973193;28;20022;-70
2022/02/19 00:44:20;;;;;;;4.03;1.65;;;;;;;10.90;41.36;100541.56;4973175;28;20027;-70
2022/02/19 00:46:46;;;;;;;6.70;1.10;;;;;;;11.13;40.74;100547.69;4973110;28;20030;-70
2022/02/19 00:49:12;;;;;;;2.85;1.15;;;;;;;11.08;41.14;100554.09;4975298;28;20023;-70
2022/02/19 00:51:37;;;;;;;6.13;1.50;;;;;;;10.67;41.84;100560.81;4976694;28;20035;-70
2022/02/19 00:54:03;;;;;;;2.47;1.05;;;;;;;10.40;42.16;100561.84;4976690;28;20030;-72
2022/02/19 00:56:29;;;;;;;3.20;1.08;;;;;;;10.41;42.05;100568.09;4976637;28;20158;-71
2022/02/19 00:58:54;;;;;;;3.63;1.27;;;;;;;10.83;41.37;100572.88;4959252;28;20031;-71
2022/02/19 01:01:22;;;;;;;6.13;1.55;;;;;;;10.65;42.05;100571.22;4976790;28;20480;-71
2022/02/19 01:03:47;;;;;;;3.72;1.27;;;;;;;11.00;41.09;100580.31;4976629;28;20359;-70
2022/02/19 01:06:13;;;;;;;4.25;1.10;;;;;;;10.85;41.55;100586.22;4976392;28;20029;-73
2022/02/19 01:08:39;;;;;;;5.97;2.03;;;;;;;11.25;40.62;100572.44;4976443;28;20058;-71
2022/02/19 01:11:04;;;;;;;4.45;1.27;;;;;;;10.84;41.62;100593.63;4976371;28;20027;-71
2022/02/19 01:13:30;;;;;;;4.03;1.42;;;;;;;11.05;41.38;100587.56;4976358;28;20389;-72
2022/02/19 01:15:58;;;;;;;9.18;2.20;;;;;;;10.95;41.89;100587.84;4958921;28;20497;-71
2022/02/19 01:18:24;;;;;;;6.88;1.70;;;;;;;10.96;41.65;100595.75;4958918;28;20503;-72
2022/02/19 01:20:50;;;;;;;6.75;1.70;;;;;;;10.73;42.22;100602.44;4958852;28;20023;-72
2022/02/19 01:23:15;;;;;;;4.25;1.40;;;;;;;11.23;41.23;100611.06;4976077;28;20493;-71
2022/02/19 01:25:41;;;;;;;4.45;1.50;;;;;;;11.30;41.13;100608.66;4958935;28;20500;-72
2022/02/19 01:28:07;;;;;;;5.88;1.38;;;;;;;11.21;41.30;100607.84;4958655;28;20479;-71
2022/02/19 01:30:32;;;;;;;4.28;1.55;;;;;;;11.24;41.32;100606.41;4975827;28;20134;-71
2022/02/19 01:32:58;;;;;;;4.82;1.75;;;;;;;10.93;42.22;100609.25;4975893;28;20069;-72
2022/02/19 01:35:24;;;;;;;9.30;1.95;;;;;;;10.94;42.26;100603.44;4976142;28;20105;-71
2022/02/19 01:37:50;;;;;;;7.47;1.50;;;;;;;11.13;41.92;100588.69;4975826;28;20061;-71
2022/02/19 01:40:16;;;;;;;6.90;1.60;;;;;;;11.29;41.44;100587.91;4975870;28;20027;-71
2022/02/19 01:42:42;;;;;;;9.98;2.85;;;;;;;11.30;41.40;100592.25;4975809;28;20031;-72
2022/02/19 01:45:11;;;;;;;5.78;1.45;;;;;;;11.52;40.92;100587.75;4975940;28;20077;-72
2022/02/19 01:47:37;;;;;;;9.75;1.98;;;;;;;11.38;41.49;100583.22;4975976;28;20038;-73
2022/02/19 01:50:13;;;;;;;7.57;2.22;;;;;;;11.19;42.08;100590.97;4975638;28;20031;-76
2022/02/19 01:52:42;;;;;;;6.07;1.35;;;;;;;11.37;41.49;100591.78;4958233;28;20117;-72
2022/02/19 01:55:08;;;;;;;6.10;1.88;;;;;;;11.30;41.68;100588.72;4975588;28;20541;-74
2022/02/19 01:57:34;;;;;;;8.18;1.90;;;;;;;11.31;41.71;100577.44;4975563;28;20022;-72
2022/02/19 02:00:00;;;;;;;9.93;2.20;;;;;;;11.28;42.09;100582.75;5286310;23;20050;-74
2022/02/19 02:02:26;;;;;;;3.85;1.38;;;;;;;11.31;41.90;100569.22;5014273;28;20460;-73
2022/02/19 02:04:51;;;;;;;10.13;1.92;;;;;;;11.43;41.74;100576.81;5014458;28;20030;-75
2022/02/19 02:07:17;;;;;;;9.45;1.70;;;;;;;11.58;41.58;100573.56;5005920;28;20473;-78
2022/02/19 02:09:43;;;;;;;8.23;1.63;;;;;;;11.42;41.90;100568.94;4977328;28;20058;-75
2022/02/19 02:12:09;;;;;;;8.68;1.70;;;;;;;11.53;41.87;100560.06;4994775;28;20030;-72
2022/02/19 02:14:43;;;;;;;6.40;1.50;;;;;;;11.44;42.14;100563.94;4994787;28;20034;-71
2022/02/19 02:17:10;;;;;;;5.07;1.40;;;;;;;11.58;41.84;100570.84;4994851;28;20030;-71
2022/02/19 02:19:37;;;;;;;7.78;1.83;;;;;;;11.70;41.66;100563.88;4994630;28;20113;-71
2022/02/19 02:22:07;;;;;;;7.95;1.52;;;;;;;11.65;41.80;100573.09;4994466;28;20041;-71
2022/02/19 02:24:36;;;;;;;6.90;2.38;;;;;;;11.71;41.54;100573.72;4994509;28;20065;-72
2022/02/19 02:27:07;;;;;;;7.28;1.73;;;;;;;11.83;41.42;100580.16;4994741;28;20365;-71
2022/02/19 02:29:40;;;;;;;4.85;1.30;;;;;;;11.55;42.15;100568.72;4977046;28;20064;-71
2022/02/19 02:32:06;;;;;;;3.38;1.20;;;;;;;11.72;41.68;100567.94;4994688;28;20026;-71
2022/02/19 02:34:31;;;;;;;7.88;1.52;;;;;;;11.97;41.22;100568.22;4994350;28;20190;-76
2022/02/19 02:36:57;;;;;;;8.43;2.08;;;;;;;12.06;41.09;100569.00;4994357;28;20066;-77
2022/02/19 02:39:22;;;;;;;4.70;1.73;;;;;;;12.00;41.26;100568.38;4994239;28;20503;-74
2022/02/19 02:41:48;;;;;;;6.75;1.73;;;;;;;12.06;41.02;100564.31;4994095;28;20042;-72
2022/02/19 02:44:13;;;;;;;4.35;1.40;;;;;;;11.99;41.33;100561.28;4994204;28;20037;-73
2022/02/19 02:46:39;;;;;;;8.95;1.92;;;;;;;11.98;41.30;100559.69;4994145;28;20037;-75
2022/02/19 02:49:05;;;;;;;6.68;1.88;;;;;;;12.00;41.34;100560.16;4976990;28;20022;-73
2022/02/19 02:51:31;;;;;;;6.20;1.73;;;;;;;11.83;41.54;100568.41;4976703;28;20026;-78
2022/02/19 02:53:57;;;;;;;8.48;1.70;;;;;;;12.03;40.97;100567.72;4994316;28;20622;-74
2022/02/19 02:56:22;;;;;;;8.27;1.75;;;;;;;12.01;41.18;100574.66;4994138;28;20035;-71
2022/02/19 02:58:48;;;;;;;6.90;1.40;;;;;;;12.03;41.04;100566.94;4993769;28;20057;-75
2022/02/19 03:01:13;;;;;;;4.40;1.73;;;;;;;11.90;41.33;100575.00;4993871;28;20076;-72
2022/02/19 03:03:39;;;;;;;7.72;1.83;;;;;;;11.75;41.68;100578.22;4993965;28;20038;-74
2022/02/19 03:06:05;;;;;;;10.80;1.98;;;;;;;11.78;41.56;100572.09;4993930;28;20485;-75
2022/02/19 03:08:31;;;;;;;8.95;1.95;;;;;;;11.76;41.57;100571.63;4993797;28;20101;-74
2022/02/19 03:10:56;;;;;;;8.65;1.92;;;;;;;11.78;41.59;100572.09;4993465;28;20485;-71
2022/02/19 03:13:22;;;;;;;8.93;2.10;;;;;;;11.86;41.33;100573.22;4993004;28;20041;-75
2022/02/19 03:15:47;;;;;;;9.32;2.25;;;;;;;11.81;41.82;100573.41;4993784;28;20054;-71
2022/02/19 03:18:13;;;;;;;6.55;2.13;;;;;;;11.84;41.59;100572.75;4993799;28;20491;-76
2022/02/19 03:20:39;;;;;;;10.73;1.75;;;;;;;11.86;41.33;100568.59;4993884;28;20481;-71
2022/02/19 03:23:06;;;;;;;8.50;2.35;;;;;;;11.89;41.34;100572.59;4993625;28;20045;-74
2022/02/19 03:25:32;;;;;;;8.43;2.63;;;;;;;11.83;41.38;100568.41;4993499;28;20054;-74
2022/02/19 03:27:58;;;;;;;6.30;2.65;;;;;;;11.84;41.33;100562.59;4993522;28;20392;-77
2022/02/19 03:30:24;;;;;;;10.95;2.63;;;;;;;11.87;41.24;100556.50;4976172;28;20113;-76
2022/02/19 03:32:50;;;;;;;9.48;2.38;;;;;;;11.87;41.09;100555.69;4993993;28;20113;-73
2022/02/19 03:35:16;;;;;;;7.88;2.40;;;;;;;11.64;41.68;100561.34;4993496;28;20050;-72
2022/02/19 03:37:43;;;;;;;11.13;3.28;;;;;;;11.75;41.19;100547.31;4993520;28;20033;-72
2022/02/19 03:40:10;;;;;;;5.95;1.83;;;;;;;11.82;41.25;100555.84;4993401;28;20065;-76
2022/02/19 03:42:37;;;;;;;5.18;1.75;;;;;;;11.77;41.47;100556.78;4993297;28;20030;-73
2022/02/19 03:45:05;;;;;;;7.63;2.20;;;;;;;11.73;41.46;100552.31;4993203;28;20026;-73
2022/02/19 03:47:30;;;;;;;9.15;2.20;;;;;;;11.74;41.41;100532.03;4993179;28;20081;-72
2022/02/19 03:49:56;;;;;;;6.75;2.22;;;;;;;11.77;41.39;100539.56;4993110;28;20034;-76
2022/02/19 03:52:22;;;;;;;9.57;2.70;;;;;;;11.71;41.57;100524.44;4993186;28;20038;-73
2022/02/19 03:54:47;;;;;;;6.55;1.83;;;;;;;11.81;41.24;100524.94;4993101;28;20030;-72
2022/02/19 03:57:13;;;;;;;10.40;3.60;;;;;;;11.83;41.28;100517.19;4993046;28;20034;-71
2022/02/19 03:59:39;;;;;;;17.35;2.95;;;;;;;11.80;41.45;100509.66;4992927;28;20092;-74
2022/02/19 04:02:05;;;;;;;6.60;2.17;;;;;;;11.76;41.35;100511.41;4993019;28;20117;-74
2022/02/19 04:04:30;;;;;;;10.10;1.85;;;;;;;11.86;41.33;100518.47;4992930;28;20027;-74
2022/02/19 04:06:56;;;;;;;4.80;1.67;;;;;;;11.82;41.29;100512.84;4993009;28;20034;-73
2022/02/19 04:09:21;;;;;;;11.00;3.15;;;;;;;11.85;41.28;100505.91;4993142;28;20109;-75
2022/02/19 04:11:47;;;;;;;6.90;2.35;;;;;;;11.80;41.39;100509.66;4992946;28;20035;-77
2022/02/19 04:14:13;;;;;;;10.23;2.40;;;;;;;11.85;41.22;100505.91;4992939;28;20474;-73
2022/02/19 04:16:39;;;;;;;7.10;2.47;;;;;;;11.75;41.66;100506.25;4992855;28;20117;-75
2022/02/19 04:19:04;;;;;;;13.97;3.03;;;;;;;11.83;41.37;100510.94;4992978;28;20058;-75
2022/02/19 04:21:30;;;;;;;6.80;1.95;;;;;;;11.85;41.69;100509.47;4992815;28;20088;-71
2022/02/19 04:23:55;;;;;;;6.55;2.35;;;;;;;11.89;41.46;100498.66;4994809;28;20061;-76
2022/02/19 04:26:21;;;;;;;7.88;2.17;;;;;;;11.95;41.45;100483.69;4996637;28;20093;-73
2022/02/19 04:28:47;;;;;;;6.95;2.05;;;;;;;11.98;41.33;100468.50;4996725;28;20027;-71
2022/02/19 04:31:13;;;;;;;12.43;2.50;;;;;;;12.00;41.49;100468.97;4996827;28;20120;-71
2022/02/19 04:33:38;;;;;;;13.23;2.92;;;;;;;12.06;41.33;100467.66;4996779;28;20034;-73
2022/02/19 04:36:04;;;;;;;6.25;2.15;;;;;;;12.04;41.53;100470.75;4996701;28;20038;-76
2022/02/19 04:38:30;;;;;;;4.50;1.63;;;;;;;12.12;41.38;100472.63;4996547;28;20030;-73
2022/02/19 04:40:56;;;;;;;6.70;2.23;;;;;;;12.06;41.56;100471.22;4996733;28;20034;-74
2022/02/19 04:43:22;;;;;;;5.88;1.75;;;;;;;12.19;41.28;100467.44;4996379;28;20366;-74
2022/02/19 04:45:48;;;;;;;4.57;1.75;;;;;;;12.14;41.56;100464.88;4996428;28;20030;-73
2022/02/19 04:48:14;;;;;;;8.23;1.92;;;;;;;12.20;41.46;100468.25;4978822;28;20042;-77
2022/02/19 04:50:39;;;;;;;8.07;2.70;;;;;;;12.16;41.63;100470.03;4996171;28;20061;-78
2022/02/19 04:53:05;;;;;;;5.40;1.60;;;;;;;12.25;41.50;100470.00;4996149;28;20034;-77
2022/02/19 04:55:34;;;;;;;8.35;2.03;;;;;;;12.34;41.26;100462.53;4996177;28;20034;-75
2022/02/19 04:58:00;;;;;;;6.75;1.60;;;;;;;12.41;41.13;100471.03;4996163;28;20030;-74
2022/02/19 05:00:26;;;;;;;6.57;1.98;;;;;;;12.32;41.35;100454.66;4996022;28;20051;-70
2022/02/19 05:02:51;;;;;;;7.88;1.50;;;;;;;12.37;41.23;100443.50;4995927;28;20034;-74
2022/02/19 05:05:17;;;;;;;6.68;1.52;;;;;;;12.39;41.34;100443.16;4996110;28;20370;-71
2022/02/19 05:07:42;;;;;;;6.47;1.88;;;;;;;12.41;41.30;100435.41;4995976;28;20034;-74
2022/02/19 05:10:08;;;;;;;6.35;1.88;;;;;;;12.45;41.40;100450.06;4995972;28;20031;-71
2022/02/19 05:12:40;;;;;;;4.45;1.55;;;;;;;12.38;41.38;100453.31;4995822;28;20040;-79
2022/02/19 05:15:09;;;;;;;6.78;2.00;;;;;;;12.41;41.21;100451.88;4996158;28;20037;-70
2022/02/19 05:17:34;;;;;;;4.82;1.70;;;;;;;12.57;41.03;100455.63;4995798;28;20034;-75
2022/02/19 05:20:00;;;;;;;2.38;1.23;;;;;;;12.60;41.02;100445.91;4996186;28;20370;-71
2022/02/19 05:22:25;;;;;;;7.00;1.70;;;;;;;12.62;40.87;100452.69;4996042;28;20468;-71
2022/02/19 05:24:51;;;;;;;4.55;1.40;;;;;;;12.52;41.23;100442.09;4995851;28;20499;-71
2022/02/19 05:27:16;;;;;;;7.93;1.48;;;;;;;12.66;41.03;100431.69;4995781;28;20042;-72
2022/02/19 05:29:42;;;;;;;6.65;2.25;;;;;;;12.64;41.11;100436.72;4996169;28;20069;-72
2022/02/19 05:32:08;;;;;;;10.30;1.50;;;;;;;12.68;40.97;100431.34;4997505;28;20034;-72
2022/02/19 05:34:34;;;;;;;4.85;1.50;;;;;;;12.76;40.86;100436.75;4997559;28;20455;-74
2022/02/19 05:37:00;;;;;;;4.30;1.42;;;;;;;12.80;40.94;100419.66;4996481;28;20087;-71
2022/02/19 05:39:25;;;;;;;4.57;1.30;;;;;;;12.53;41.53;100416.28;4977932;28;20034;-71
2022/02/19 05:41:51;;;;;;;7.68;1.92;;;;;;;12.78;40.85;100415.31;4995444;28;20030;-76
2022/02/19 05:44:16;;;;;;;4.40;1.33;;;;;;;12.86;40.77;100407.34;4995545;28;20030;-78
2022/02/19 05:46:42;;;;;;;4.20;1.38;;;;;;;12.79;40.99;100402.41;4995514;28;20109;-76
2022/02/19 05:49:08;;;;;;;3.70;1.05;;;;;;;12.77;41.23;100408.22;4995441;28;20443;-71
2022/02/19 05:51:33;;;;;;;6.45;1.70;;;;;;;12.95;40.52;100410.81;4995334;28;20472;-76
2022/02/19 05:53:59;;;;;;;5.78;1.92;;;;;;;12.94;40.97;100409.22;4995208;28;20485;-71
2022/02/19 05:56:24;;;;;;;3.78;1.20;;;;;;;12.92;40.91;100398.59;4995157;28;20052;-73
2022/02/19 05:58:50;;;;;;;3.35;1.13;;;;;;;12.94;41.22;100403.72;4994942;28;20140;-78
2022/02/19 06:01:16;;;;;;;5.28;1.50;;;;;;;13.00;41.11;100391.41;4995268;28;20173;-71
2022/02/19 06:03:42;;;;;;;3.78;1.45;;;;;;;13.08;41.07;100387.78;4994855;28;20040;-72
2022/02/19 06:06:07;;;;;;;6.38;1.15;;;;;;;13.24;40.80;100380.53;4995019;28;20109;-73
2022/02/19 06:08:33;;;;;;;5.82;1.48;;;;;;;13.23;40.94;100367.16;4994956;28;20105;-72
2022/02/19 06:10:59;;;;;;;6.80;1.48;;;;;;;13.26;40.61;100361.78;4994800;28;20034;-77
2022/02/19 06:13:24;;;;;;;4.78;1.35;;;;;;;13.30;40.95;100361.91;4994763;28;20026;-73
2022/02/19 06:15:50;;;;;;;9.02;3.08;;;;;;;13.33;40.88;100356.53;4994829;28;20085;-72
2022/02/19 06:18:17;;;;;;;8.23;1.80;;;;;;;13.24;41.01;100361.34;4977160;28;20521;-71
2022/02/19 06:20:42;;;;;;;9.05;1.60;;;;;;;13.37;40.76;100347.63;4994617;28;20477;-75
2022/02/19 06:23:08;;;;;;;8.23;1.55;;;;;;;13.37;40.91;100334.69;4994515;28;20030;-77
2022/02/19 06:25:34;;;;;;;14.15;2.15;;;;;;;13.37;40.88;100339.38;4994700;28;20106;-77
2022/02/19 06:28:00;;;;;;;3.20;1.27;;;;;;;13.36;40.97;100324.88;4994482;28;20113;-73
2022/02/19 06:30:26;;;;;;;6.00;1.58;;;;;;;13.32;41.06;100316.53;4994391;28;20110;-70
2022/02/19 06:32:51;;;;;;;6.80;1.67;;;;;;;13.36;40.91;100307.59;4994319;28;20035;-77
2022/02/19 06:35:17;;;;;;;3.90;1.35;;;;;;;13.30;41.12;100313.34;4994622;28;20113;-70
2022/02/19 06:37:47;;;;;;;5.95;1.48;;;;;;;13.30;41.23;100296.06;4994323;28;20516;-71
2022/02/19 06:40:15;;;;;;;4.82;1.30;;;;;;;13.28;41.23;100288.16;4994326;28;20599;-70
2022/02/19 06:42:42;;;;;;;5.45;1.58;;;;;;;13.35;41.09;100276.63;4994351;28;20473;-70
2022/02/19 06:45:08;;;;;;;5.72;1.35;;;;;;;13.32;41.04;100278.13;4994331;28;20061;-71
2022/02/19 06:47:35;;;;;;;5.30;1.42;;;;;;;13.31;41.27;100251.81;4976626;28;20370;-77
2022/02/19 06:50:02;;;;;;;8.15;2.30;;;;;;;13.44;40.98;100243.56;4994057;28;20505;-77
2022/02/19 06:52:28;;;;;;;7.57;2.45;;;;;;;13.37;41.13;100244.13;4994285;28;20033;-70
2022/02/19 06:54:54;;;;;;;8.90;2.08;;;;;;;13.23;41.58;100239.03;4993945;28;20397;-73
2022/02/19 06:57:21;;;;;;;8.02;1.60;;;;;;;13.19;41.58;100234.53;4993873;28;20038;-77
2022/02/19 06:59:49;;;;;;;9.07;2.78;;;;;;;13.24;41.66;100221.41;4993726;28;20053;-76
2022/02/19 07:02:16;;;;;;;11.25;2.20;;;;;;;13.30;41.53;100206.31;4993722;28;20030;-74
2022/02/19 07:04:41;;;;;;;8.65;2.35;;;;;;;13.36;41.61;100200.59;4992602;28;20031;-75
2022/02/19 07:07:07;;;;;;;14.98;2.53;;;;;;;13.30;41.72;100186.31;5001873;28;20051;-74
2022/02/19 07:09:33;;;;;;;10.18;2.17;;;;;;;13.34;41.55;100176.25;5013243;28;20034;-75
2022/02/19 07:11:58;;;;;;;8.57;1.67;;;;;;;13.40;41.37;100165.84;5012878;28;20109;-72
2022/02/19 07:14:25;;;;;;;11.90;3.05;;;;;;;13.32;41.62;100156.59;5013290;28;20133;-76
2022/02/19 07:16:50;;;;;;;9.05;2.42;;;;;;;13.33;41.50;100150.75;5013193;28;20034;-72
2022/02/19 07:19:16;;;;;;;8.52;1.42;;;;;;;13.22;41.63;100138.63;5013193;28;20100;-74
2022/02/19 07:21:44;;;;;;;7.82;1.98;;;;;;;13.15;42.01;100130.19;5013139;28;20037;-73
2022/02/19 07:24:11;;;;;;;10.85;2.60;;;;;;;13.04;42.20;100123.53;5012746;28;20061;-78
2022/02/19 07:26:37;;;;;;;11.57;2.97;;;;;;;13.10;42.24;100104.91;5012815;28;20095;-77
2022/02/19 07:29:03;;;;;;;6.25;1.60;;;;;;;13.18;41.95;100096.56;5012590;28;20022;-74
2022/02/19 07:31:29;;;;;;;5.18;1.45;;;;;;;13.05;42.25;100101.25;5012541;28;20412;-75
2022/02/19 07:33:54;;;;;;;3.55;1.15;;;;;;;13.07;42.37;100095.41;5007308;28;20033;-74
2022/02/19 07:36:20;;;;;;;5.28;1.88;;;;;;;13.03;42.42;100094.53;5009391;28;20044;-72
2022/02/19 07:38:45;;;;;;;8.00;2.20;;;;;;;12.99;42.67;100085.38;5012807;28;20029;-75
2022/02/19 07:41:11;;;;;;;7.43;1.70;;;;;;;13.02;42.60;100068.25;5012720;28;20503;-73
2022/02/19 07:43:36;;;;;;;9.82;2.25;;;;;;;12.90;42.93;100066.31;5008162;28;20415;-76
2022/02/19 07:46:02;;;;;;;11.60;2.53;;;;;;;12.90;42.46;100062.78;4984869;28;20037;-77
2022/02/19 07:48:28;;;;;;;5.70;1.50;;;;;;;13.01;42.23;100052.94;4987065;28;20117;-79
2022/02/19 07:59:06;;;;;;;4.93;1.60;;;;;;;12.89;42.29;100025.53;5002090;28;20093;-73
2022/02/19 08:01:31;;;;;;;5.70;1.70;;;;;;;12.71;42.61;100009.34;5006865;28;20034;-73
2022/02/19 08:03:57;;;;;;;5.90;1.25;;;;;;;12.77;42.36;99994.25;5012442;28;20065;-73
2022/02/19 08:06:22;;;;;;;3.65;1.02;;;;;;;12.68;42.46;99990.84;5012531;28;20044;-72
2022/02/19 08:08:48;;;;;;;4.72;0.90;;;;;;;12.73;42.25;99965.94;5012620;28;20033;-76
2022/02/19 08:11:14;;;;;;;4.28;0.90;;;;;;;12.61;42.59;99951.44;4994872;28;20172;-72
2022/02/19 08:13:40;;;;;;;6.28;1.13;;;;;;;12.73;42.51;99941.25;4994867;28;20124;-76
2022/02/19 08:16:08;;;;;;;3.47;0.85;;;;;;;12.69;42.49;99937.59;5012876;28;20030;-73
2022/02/19 08:18:34;;;;;;;4.32;1.20;;;;;;;12.66;42.69;99929.28;4995010;28;20033;-72
2022/02/19 08:21:00;;;;;;;5.38;1.35;;;;;;;12.86;42.23;99927.53;4992967;28;20026;-71
2022/02/19 08:23:26;;;;;;;6.90;2.15;;;;;;;12.97;42.08;99947.81;4992745;28;20030;-71
2022/02/19 08:25:51;;;;;;;7.72;3.15;;;;;;;12.97;42.41;99931.38;4992691;28;20826;-70
2022/02/19 08:28:17;;;;;;;3.65;1.00;;;;;;;13.09;42.02;99912.13;5000666;28;20030;-71
2022/02/19 08:30:45;;;;;;;6.80;2.63;;;;;;;12.89;42.73;99927.63;5007866;28;20037;-74
2022/02/19 08:33:12;;;;;;;10.70;4.25;;;;;;;13.00;42.58;99909.53;4993547;28;20107;-73
2022/02/19 08:35:39;;;;;;;7.63;3.80;;;;;;;13.15;42.34;99882.47;5008793;28;20022;-72
2022/02/19 08:38:07;;;;;;;5.15;1.40;;;;;;;13.05;42.73;99879.09;5010416;28;20108;-71
2022/02/19 08:40:33;;;;;;;5.53;1.10;;;;;;;13.14;42.65;99864.44;5011782;28;20018;-71
2022/02/19 08:42:58;;;;;;;4.10;1.25;;;;;;;13.12;42.73;99850.28;5011792;28;20029;-74
2022/02/19 08:45:24;;;;;;;6.75;1.52;;;;;;;13.16;43.13;99835.53;5011413;28;20392;-73
2022/02/19 08:47:54;;;;;;;6.80;1.52;;;;;;;13.08;43.40;99821.97;5012290;28;20384;-73
2022/02/19 08:50:20;;;;;;;4.40;1.10;;;;;;;13.20;43.27;99816.44;5012128;28;20026;-76
2022/02/19 08:52:50;;;;;;;7.68;2.00;;;;;;;13.24;43.43;99809.09;5003647;28;20074;-73
2022/02/19 08:55:16;;;;;;;3.05;2.70;;;;;;;13.49;42.76;99810.50;4995413;28;20108;-74
2022/02/19 08:57:52;;;;;;;5.95;1.65;;;;;;;13.54;43.09;99802.03;4994267;28;20127;-71
2022/02/19 09:00:18;;;;;;;4.10;1.10;;;;;;;13.57;43.14;99789.53;4973835;28;20046;-75
2022/02/19 09:02:44;;;;;;;11.55;2.30;;;;;;;13.63;43.13;99790.06;4972967;28;20068;-76
2022/02/19 09:05:13;;;;;;;16.98;3.05;;;;;;;13.72;43.12;99774.97;4974962;28;20076;-75
2022/02/19 09:07:39;;;;;;;8.57;2.25;;;;;;;13.74;43.00;99774.63;4974148;28;20512;-74
2022/02/19 09:10:06;;;;;;;9.57;2.05;;;;;;;13.84;42.99;99785.88;4976694;28;20030;-72
2022/02/19 09:12:35;;;;;;;12.48;3.63;;;;;;;13.91;42.94;99773.44;4978811;28;20535;-71
2022/02/19 09:15:03;;;;;;;16.25;8.20;;;;;;;13.91;43.07;99768.75;4979522;28;20499;-71
2022/02/19 09:17:29;;;;;;;14.75;4.72;;;;;;;14.01;42.95;99754.44;4980143;28;20451;-72
2022/02/19 09:19:56;;;;;;;10.65;3.33;;;;;;;14.00;42.94;99749.31;4977550;28;20026;-71
2022/02/19 09:22:22;;;;;;;10.02;3.05;;;;;;;14.00;43.20;99746.56;4977500;28;20037;-74
2022/02/19 09:24:47;;;;;;;14.38;4.03;;;;;;;14.10;42.91;99755.03;4990737;28;20030;-73
2022/02/19 09:27:13;;;;;;;13.57;6.30;;;;;;;14.12;43.17;99744.47;4995495;28;20037;-75
2022/02/19 09:29:39;;;;;;;17.15;5.68;;;;;;;13.98;43.53;99752.44;4995415;28;20034;-71
2022/02/19 09:32:05;;;;;;;10.93;6.15;;;;;;;14.02;43.56;99750.53;4995589;28;20034;-71
2022/02/19 09:34:30;;;;;;;8.23;2.72;;;;;;;14.05;43.40;99754.50;4995200;28;20369;-72
2022/02/19 09:36:56;;;;;;;11.07;6.80;;;;;;;14.17;43.34;99757.13;4992229;28;20030;-76
2022/02/19 09:39:22;;;;;;;15.90;7.30;;;;;;;14.21;43.40;99770.94;4995095;28;20479;-72
2022/02/19 09:41:48;;;;;;;6.22;3.83;;;;;;;13.62;44.77;99778.28;4997494;28;20101;-74
2022/02/19 09:44:14;;;;;;;13.52;10.63;;;;;;;13.87;44.13;99778.84;4996688;28;20038;-73
2022/02/19 09:46:40;;;;;;;27.80;21.08;;;;;;;13.95;44.11;99782.56;4995303;28;20037;-72
2022/02/19 09:49:07;;;;;;;15.85;9.68;;;;;;;14.05;43.92;99787.47;4995399;28;20060;-72
2022/02/19 09:51:34;;;;;;;12.00;7.82;;;;;;;14.06;43.93;99778.91;4995320;28;20029;-77
2022/02/19 09:54:00;;;;;;;111.65;86.20;;;;;;;14.13;43.59;99775.47;4994853;28;20496;-72
2022/02/19 09:56:28;;;;;;;15.18;6.53;;;;;;;14.16;43.91;99783.03;4995088;28;20057;-72
2022/02/19 09:59:00;;;;;;;33.92;30.08;;;;;;;14.13;44.17;99789.22;4998471;28;20042;-73
2022/02/19 10:01:27;;;;;;;21.33;12.88;;;;;;;14.20;44.16;99794.88;5014526;28;20030;-72
2022/02/19 10:03:56;;;;;;;27.77;16.77;;;;;;;14.24;44.04;99798.50;5014451;28;20065;-74
2022/02/19 10:06:28;;;;;;;13.25;4.45;;;;;;;14.36;43.95;99803.06;5012647;28;20026;-70
2022/02/19 10:09:13;;;;;;;18.73;15.13;;;;;;;14.26;44.52;99798.13;5014975;28;20033;-79
2022/02/19 10:11:40;;;;;;;18.42;14.75;;;;;;;14.35;44.51;99813.25;5014442;28;20096;-73
2022/02/19 10:14:33;;;;;;;23.50;18.80;;;;;;;14.08;45.28;99830.72;5013379;28;20435;-73
2022/02/19 10:17:16;;;;;;;28.60;19.92;;;;;;;14.47;44.68;99841.78;5010419;28;20076;-75
2022/02/19 10:19:59;;;;;;;19.33;10.02;;;;;;;14.69;43.97;99860.31;5011451;28;20022;-75
2022/02/19 10:22:29;;;;;;;18.85;11.35;;;;;;;14.69;44.08;99879.56;5010621;28;20555;-71
2022/02/19 10:24:57;;;;;;;10.35;6.75;;;;;;;14.68;44.05;99894.47;5010930;28;20026;-72
2022/02/19 10:27:40;;;;;;;50.58;34.97;;;;;;;14.59;44.50;99891.94;5012312;28;20034;-72
2022/02/19 10:30:07;;;;;;;37.97;27.40;;;;;;;14.76;44.24;99904.47;5013036;28;20022;-72
2022/02/19 10:32:56;;;;;;;9.32;5.45;;;;;;;14.79;44.43;99925.75;5013382;28;20487;-74
2022/02/19 10:35:40;;;;;;;11.25;8.48;;;;;;;14.47;45.34;99905.81;5005298;28;20026;-73
2022/02/19 10:38:15;;;;;;;12.18;10.30;;;;;;;14.81;44.94;99912.44;4996643;28;20036;-80
2022/02/19 10:41:09;;;;;;;12.30;10.48;;;;;;;14.97;44.43;99915.91;4997224;28;20116;-79
2022/02/19 10:43:37;;;;;;;18.58;7.35;;;;;;;15.07;44.05;99925.53;4996088;28;20037;-76
2022/02/19 10:46:04;;;;;;;20.52;15.95;;;;;;;15.10;44.30;99927.53;4980864;28;20429;-78
2022/02/19 10:48:31;;;;;;;7.53;1.58;;;;;;;14.75;44.96;99935.88;4996939;28;20061;-76
2022/02/19 10:51:20;;;;;;;5.25;1.15;;;;;;;13.88;47.03;99931.47;4997899;28;20025;-78
2022/02/19 10:54:08;;;;;;;5.22;0.73;;;;;;;13.85;46.69;99940.44;4996518;28;20029;-78
2022/02/19 10:56:35;;;;;;;6.78;2.05;;;;;;;14.16;45.85;99954.16;4995865;28;20192;-77
2022/02/19 10:59:03;;;;;;;4.47;1.40;;;;;;;13.80;46.43;99981.88;5005788;28;20084;-85
2022/02/19 11:01:46;;;;;;;10.95;1.00;;;;;;;14.10;45.73;99987.72;5010935;28;20026;-80
2022/02/19 11:04:14;;;;;;;6.90;1.10;;;;;;;13.81;46.09;99997.19;4997256;28;20116;-77
2022/02/19 11:06:40;;;;;;;6.95;1.73;;;;;;;14.15;45.45;100003.97;5009090;28;20113;-79
2022/02/19 11:09:07;;;;;;;3.03;1.23;;;;;;;14.47;44.96;100029.50;5013462;28;20022;-78
2022/02/19 11:11:35;;;;;;;2.78;0.98;;;;;;;14.51;44.68;100048.81;5012385;28;20022;-90
2022/02/19 11:14:12;;;;;;;6.35;1.50;;;;;;;14.16;45.27;100060.50;4995220;28;20506;-81
2022/02/19 11:16:38;;;;;;;4.68;1.20;;;;;;;13.92;46.01;100071.63;4994773;28;20125;-77
2022/02/19 11:19:05;;;;;;;15.02;11.07;;;;;;;14.13;45.03;100092.22;4995801;28;20093;-76
2022/02/19 11:21:33;;;;;;;12.18;5.25;;;;;;;14.13;44.99;100094.16;5012452;28;20037;-79
2022/02/19 11:24:04;;;;;;;4.30;2.38;;;;;;;13.54;45.66;100108.63;5011971;28;20029;-83
2022/02/19 11:26:31;;;;;;;6.63;1.50;;;;;;;13.69;45.86;100115.31;5011581;28;20392;-77
2022/02/19 11:29:19;;;;;;;22.25;13.85;;;;;;;14.10;44.71;100125.09;5012756;28;20476;-81
2022/02/19 11:31:46;;;;;;;33.38;23.77;;;;;;;13.69;45.77;100138.09;5010763;28;20046;-78